Time;durP1;ratioP1;P1;durP2;ratioP2;P2;SDS_P1;SDS_P2;PMS_P1;PMS_P2;Temp;Humidity;BMP_temperature;BMP_pressure;BME280_temperature;BME280_humidity;BME280_pressure;Samples;Min_cycle;Max_cycle;Signal;HPM_P1;HPM_P2
2023/01/04 00:00:14;;;;;;;27.95;15.60;;;;;;;;;;4848598;29;20058;-61
2023/01/04 00:02:39;;;;;;;31.67;16.10;;;;;;;;;;4877156;29;20044;-60
2023/01/04 00:05:05;;;;;;;27.38;15.60;;;;;;;;;;4848211;29;20270;-61
2023/01/04 00:07:30;;;;;;;31.55;15.32;;;;;;;;;;4876274;29;20082;-60
2023/01/04 00:09:55;;;;;;;32.35;16.08;;;;;;;;;;4878396;29;20039;-60
2023/01/04 00:12:21;;;;;;;30.50;15.00;;;;;;;;;;4850293;29;20049;-60
2023/01/04 00:14:46;;;;;;;31.88;16.08;;;;;;;;;;4851770;29;20076;-60
2023/01/04 00:17:12;;;;;;;34.95;15.60;;;;;;;;;;4878843;29;20102;-61
2023/01/04 00:19:37;;;;;;;32.17;16.02;;;;;;;;;;4848351;29;20072;-59
2023/01/04 00:22:02;;;;;;;26.25;13.93;;;;;;;;;;4849563;29;20038;-60
2023/01/04 00:24:28;;;;;;;32.35;15.77;;;;;;;;;;4850173;29;20037;-61
2023/01/04 00:26:53;;;;;;;34.47;15.07;;;;;;;;;;4849006;29;20037;-60
2023/01/04 00:29:18;;;;;;;27.15;15.32;;;;;;;;;;4849836;29;20041;-59
2023/01/04 00:31:44;;;;;;;28.25;14.73;;;;;;;;;;4848969;29;20165;-60
2023/01/04 00:34:10;;;;;;;29.38;15.20;;;;;;;;;;4850879;29;20034;-60
2023/01/04 00:36:35;;;;;;;32.38;15.70;;;;;;;;;;4849672;29;20410;-60
2023/01/04 00:39:06;;;;;;;25.75;15.20;;;;;;;;;;4849939;29;20034;-60
2023/01/04 00:41:48;;;;;;;29.58;14.95;;;;;;;;;;4877467;29;20346;-60
2023/01/04 00:44:14;;;;;;;26.70;14.45;;;;;;;;;;4848674;29;20449;-60
2023/01/04 00:46:39;;;;;;;32.40;14.45;;;;;;;;;;4848454;29;20113;-61
2023/01/04 00:49:05;;;;;;;29.15;14.70;;;;;;;;;;4849999;29;20130;-60
2023/01/04 00:51:31;;;;;;;22.83;13.73;;;;;;;;;;4845582;29;20045;-60
2023/01/04 00:53:57;;;;;;;28.30;13.85;;;;;;;;;;4849428;29;20037;-61
2023/01/04 00:56:23;;;;;;;26.08;12.45;;;;;;;;;;4848970;29;20444;-60
2023/01/04 00:58:48;;;;;;;30.33;12.65;;;;;;;;;;4850433;29;20029;-60
2023/01/04 01:01:13;;;;;;;34.20;14.40;;;;;;;;;;4846448;29;20044;-60
2023/01/04 01:03:39;;;;;;;28.45;14.30;;;;;;;;;;4848707;29;20490;-60
2023/01/04 01:06:05;;;;;;;27.63;13.35;;;;;;;;;;4846528;29;20061;-60
2023/01/04 01:08:31;;;;;;;25.45;14.30;;;;;;;;;;4847011;29;20121;-60
2023/01/04 01:11:01;;;;;;;25.98;13.52;;;;;;;;;;4849682;29;20133;-60
2023/01/04 01:13:26;;;;;;;29.75;13.68;;;;;;;;;;4849582;29;20071;-60
2023/01/04 01:15:51;;;;;;;27.00;13.48;;;;;;;;;;4846466;29;20128;-61
2023/01/04 01:18:17;;;;;;;27.23;13.80;;;;;;;;;;4847545;29;20041;-61
2023/01/04 01:20:43;;;;;;;25.08;12.80;;;;;;;;;;4877160;29;20547;-60
2023/01/04 01:23:08;;;;;;;24.15;12.30;;;;;;;;;;4863951;29;20049;-60
2023/01/04 01:25:34;;;;;;;23.85;12.30;;;;;;;;;;4876878;29;20120;-60
2023/01/04 01:27:59;;;;;;;26.30;12.43;;;;;;;;;;4878110;29;20048;-60
2023/01/04 01:30:24;;;;;;;26.20;12.40;;;;;;;;;;4847771;29;20473;-60
2023/01/04 01:32:50;;;;;;;24.10;12.63;;;;;;;;;;4849746;29;20052;-60
2023/01/04 01:35:15;;;;;;;27.38;11.98;;;;;;;;;;4849980;29;20051;-60
2023/01/04 01:37:40;;;;;;;24.13;11.90;;;;;;;;;;4849374;29;20832;-60
2023/01/04 01:40:06;;;;;;;22.38;11.07;;;;;;;;;;4848906;29;20128;-60
2023/01/04 01:42:31;;;;;;;24.40;11.68;;;;;;;;;;4850706;29;20089;-60
2023/01/04 01:44:58;;;;;;;19.30;10.68;;;;;;;;;;4850112;29;20145;-60
2023/01/04 01:47:32;;;;;;;20.63;10.55;;;;;;;;;;4878749;29;20029;-60
2023/01/04 01:49:58;;;;;;;19.20;10.15;;;;;;;;;;4847167;29;20041;-59
2023/01/04 01:52:26;;;;;;;21.33;9.50;;;;;;;;;;4847826;29;20060;-61
2023/01/04 01:54:54;;;;;;;16.33;8.20;;;;;;;;;;4847477;29;20030;-60
2023/01/04 01:57:22;;;;;;;12.57;7.88;;;;;;;;;;4847365;29;20078;-60
2023/01/04 01:59:49;;;;;;;18.33;8.82;;;;;;;;;;4846359;29;20205;-59
2023/01/04 02:02:15;;;;;;;23.75;9.77;;;;;;;;;;4849050;29;20096;-60
2023/01/04 02:04:42;;;;;;;17.48;8.68;;;;;;;;;;4848021;29;20482;-59
2023/01/04 02:07:08;;;;;;;16.85;8.20;;;;;;;;;;4847335;29;20504;-60
2023/01/04 02:09:34;;;;;;;21.50;9.18;;;;;;;;;;4845703;29;20037;-60
2023/01/04 02:11:59;;;;;;;13.75;7.68;;;;;;;;;;4848000;29;20054;-59
2023/01/04 02:14:28;;;;;;;14.65;8.07;;;;;;;;;;4847712;29;20037;-60
2023/01/04 02:17:11;;;;;;;12.65;7.82;;;;;;;;;;4846927;29;20088;-60
2023/01/04 02:19:45;;;;;;;18.00;8.30;;;;;;;;;;4846994;29;20037;-60
2023/01/04 02:22:19;;;;;;;20.63;7.97;;;;;;;;;;4850180;29;20040;-60
2023/01/04 02:24:50;;;;;;;14.93;8.40;;;;;;;;;;4848043;29;20109;-60
2023/01/04 02:27:19;;;;;;;18.20;8.07;;;;;;;;;;4847374;29;20022;-59
2023/01/04 02:29:47;;;;;;;11.27;7.25;;;;;;;;;;4849167;29;20044;-60
2023/01/04 02:32:24;;;;;;;17.13;8.32;;;;;;;;;;4847804;29;21021;-60
2023/01/04 02:34:59;;;;;;;16.15;7.93;;;;;;;;;;4849438;29;20033;-60
2023/01/04 02:37:59;;;;;;;11.65;7.55;;;;;;;;;;4850411;29;20037;-60
2023/01/04 02:40:34;;;;;;;13.38;7.45;;;;;;;;;;4849602;29;20564;-59
2023/01/04 02:45:58;;;;;;;13.65;7.03;;;;;;;;;;4853088;29;20037;-59
2023/01/04 02:51:27;;;;;;;13.85;7.30;;;;;;;;;;4848205;29;20499;-59
2023/01/04 02:53:53;;;;;;;14.30;8.25;;;;;;;;;;4850428;29;20048;-60
2023/01/04 02:56:18;;;;;;;15.20;8.27;;;;;;;;;;4850553;29;20195;-59
2023/01/04 02:59:04;;;;;;;15.73;9.20;;;;;;;;;;4850982;29;20478;-59
2023/01/04 03:07:24;;;;;;;13.68;8.13;;;;;;;;;;4852971;29;20132;-60
2023/01/04 03:09:53;;;;;;;12.15;8.00;;;;;;;;;;4850067;29;20671;-59
2023/01/04 03:12:31;;;;;;;12.23;7.43;;;;;;;;;;4852739;29;20056;-59
2023/01/04 03:15:05;;;;;;;12.07;7.50;;;;;;;;;;4880734;29;20032;-59
2023/01/04 03:17:34;;;;;;;13.32;7.70;;;;;;;;;;4852881;29;20161;-59
2023/01/04 03:20:00;;;;;;;13.10;7.55;;;;;;;;;;4851083;29;20044;-59
2023/01/04 03:36:42;;;;;;;11.05;6.47;;;;;;;;;;4843995;29;20112;-60
2023/01/04 03:50:40;;;;;;;10.77;6.82;;;;;;;;;;4848833;29;20524;-59
2023/01/04 03:53:06;;;;;;;13.68;6.82;;;;;;;;;;4850599;29;20045;-60
2023/01/04 03:55:33;;;;;;;12.23;6.85;;;;;;;;;;4851830;29;20124;-59
2023/01/04 03:57:58;;;;;;;12.30;6.80;;;;;;;;;;4851375;29;20080;-59
2023/01/04 04:00:23;;;;;;;11.35;6.97;;;;;;;;;;4847490;29;20259;-59
2023/01/04 04:02:49;;;;;;;11.95;7.15;;;;;;;;;;4877825;29;20570;-59
2023/01/04 04:10:45;;;;;;;10.65;6.78;;;;;;;;;;4846584;29;20037;-59
2023/01/04 04:13:10;;;;;;;11.90;6.55;;;;;;;;;;4852068;29;20041;-59
2023/01/04 04:15:35;;;;;;;12.90;7.10;;;;;;;;;;4851106;29;20121;-59
2023/01/04 04:18:01;;;;;;;10.57;7.13;;;;;;;;;;4853167;29;20072;-59
2023/01/04 04:20:26;;;;;;;10.75;6.53;;;;;;;;;;4844630;29;20070;-59
2023/01/04 04:22:52;;;;;;;12.13;7.05;;;;;;;;;;4850167;29;20034;-59
2023/01/04 04:25:17;;;;;;;10.75;7.00;;;;;;;;;;4848892;29;20447;-60
2023/01/04 04:27:43;;;;;;;19.65;8.77;;;;;;;;;;4849519;29;20504;-60
2023/01/04 04:30:08;;;;;;;19.92;10.88;;;;;;;;;;4850671;29;20374;-60
2023/01/04 04:32:33;;;;;;;20.48;10.15;;;;;;;;;;4850731;29;20041;-59
2023/01/04 04:34:59;;;;;;;15.07;8.25;;;;;;;;;;4852317;29;20477;-59
2023/01/04 04:37:25;;;;;;;12.77;7.50;;;;;;;;;;4849305;29;20029;-60
2023/01/04 04:39:51;;;;;;;15.75;8.00;;;;;;;;;;4843679;29;20033;-60
2023/01/04 04:42:16;;;;;;;14.15;7.43;;;;;;;;;;4850137;29;20041;-60
2023/01/04 04:44:41;;;;;;;11.30;7.50;;;;;;;;;;4849430;29;20033;-60
2023/01/04 04:47:07;;;;;;;12.13;7.38;;;;;;;;;;4878249;29;20093;-60
2023/01/04 04:49:32;;;;;;;12.27;7.70;;;;;;;;;;4848655;29;20045;-59
2023/01/04 04:51:58;;;;;;;12.02;7.70;;;;;;;;;;4850135;29;20060;-60
2023/01/04 04:54:23;;;;;;;12.93;7.90;;;;;;;;;;4851664;29;20039;-60
2023/01/04 04:56:48;;;;;;;12.82;8.00;;;;;;;;;;4863598;29;20041;-60
2023/01/04 04:59:14;;;;;;;13.32;7.55;;;;;;;;;;4849030;29;20157;-60
2023/01/04 05:01:39;;;;;;;15.13;7.60;;;;;;;;;;4849408;29;20029;-59
2023/01/04 05:04:05;;;;;;;13.45;7.70;;;;;;;;;;4849673;29;20109;-59
2023/01/04 05:06:30;;;;;;;11.35;7.10;;;;;;;;;;4849725;29;20045;-59
2023/01/04 05:08:55;;;;;;;13.82;7.63;;;;;;;;;;4850698;29;20033;-60
2023/01/04 05:12:58;;;;;;;11.98;7.10;;;;;;;;;;4848919;29;20117;-60
2023/01/04 05:14:06;;;;;;;17.35;7.63;;;;;;;;;;4850594;29;20040;-59
2023/01/04 05:16:31;;;;;;;11.02;7.20;;;;;;;;;;4878450;29;20037;-60
2023/01/04 05:18:57;;;;;;;12.82;7.75;;;;;;;;;;4849450;29;20544;-60
2023/01/04 05:21:22;;;;;;;13.77;7.70;;;;;;;;;;4851624;29;20030;-60
2023/01/04 05:23:47;;;;;;;15.88;8.40;;;;;;;;;;4854372;29;20113;-59
2023/01/04 05:26:12;;;;;;;12.75;7.88;;;;;;;;;;4881038;29;20030;-60
2023/01/04 05:28:38;;;;;;;13.57;7.95;;;;;;;;;;4851416;29;20360;-59
2023/01/04 05:31:03;;;;;;;12.80;8.05;;;;;;;;;;4877788;29;20445;-59
2023/01/04 05:33:30;;;;;;;14.60;8.07;;;;;;;;;;4847457;29;20120;-60
2023/01/04 05:35:56;;;;;;;13.18;7.82;;;;;;;;;;4851833;29;20061;-59
2023/01/04 05:38:22;;;;;;;14.63;9.30;;;;;;;;;;4848978;29;20074;-59
2023/01/04 05:40:47;;;;;;;12.77;8.50;;;;;;;;;;4853024;29;20061;-59
2023/01/04 05:43:13;;;;;;;13.80;8.32;;;;;;;;;;4850931;29;20037;-59
2023/01/04 05:45:39;;;;;;;12.05;8.02;;;;;;;;;;4851076;29;20109;-59
2023/01/04 05:48:05;;;;;;;12.75;8.18;;;;;;;;;;4850072;29;20034;-60
2023/01/04 05:50:30;;;;;;;14.43;7.95;;;;;;;;;;4851077;29;20045;-60
2023/01/04 05:53:02;;;;;;;12.50;7.55;;;;;;;;;;4849241;29;20066;-60
2023/01/04 05:55:28;;;;;;;15.40;7.53;;;;;;;;;;4846712;29;20056;-59
2023/01/04 05:57:53;;;;;;;14.13;7.47;;;;;;;;;;4847239;29;20030;-59
2023/01/04 06:00:18;;;;;;;13.38;7.72;;;;;;;;;;4842645;29;20038;-60
2023/01/04 06:02:44;;;;;;;13.43;7.75;;;;;;;;;;4845243;29;20120;-59
2023/01/04 06:05:10;;;;;;;10.27;6.30;;;;;;;;;;4847949;29;20041;-59
2023/01/04 06:07:36;;;;;;;10.80;7.13;;;;;;;;;;4848799;29;20041;-59
2023/01/04 06:10:01;;;;;;;11.73;7.30;;;;;;;;;;4848964;29;20563;-60
2023/01/04 06:12:26;;;;;;;11.75;6.72;;;;;;;;;;4845723;29;20045;-60
2023/01/04 06:14:52;;;;;;;10.23;6.90;;;;;;;;;;4845689;29;20057;-60
2023/01/04 06:17:17;;;;;;;9.43;6.20;;;;;;;;;;4878751;29;20065;-59
2023/01/04 06:19:45;;;;;;;9.80;6.53;;;;;;;;;;4855096;29;20029;-60
2023/01/04 06:22:11;;;;;;;10.70;6.53;;;;;;;;;;4849967;29;20048;-59
2023/01/04 06:24:36;;;;;;;9.70;5.47;;;;;;;;;;4850070;29;20121;-59
2023/01/04 06:27:02;;;;;;;8.60;6.00;;;;;;;;;;4879398;29;20028;-60
2023/01/04 06:29:27;;;;;;;8.05;5.30;;;;;;;;;;4878345;29;20034;-58
2023/01/04 06:31:52;;;;;;;8.32;5.63;;;;;;;;;;4847489;29;20053;-59
2023/01/04 06:34:18;;;;;;;9.15;5.53;;;;;;;;;;4881137;29;20121;-59
2023/01/04 06:36:43;;;;;;;12.38;5.63;;;;;;;;;;4848401;29;20040;-58
2023/01/04 06:39:08;;;;;;;7.43;4.88;;;;;;;;;;4881007;29;20101;-59
2023/01/04 06:41:34;;;;;;;7.97;5.05;;;;;;;;;;4847318;29;20072;-59
2023/01/04 06:43:59;;;;;;;8.73;5.28;;;;;;;;;;4850173;29;20040;-59
2023/01/04 06:46:24;;;;;;;8.32;4.65;;;;;;;;;;4877311;29;20057;-59
2023/01/04 06:48:51;;;;;;;9.27;5.32;;;;;;;;;;4848391;29;20034;-60
2023/01/04 06:51:16;;;;;;;7.67;4.77;;;;;;;;;;4849339;29;20120;-59
2023/01/04 06:53:41;;;;;;;7.55;4.55;;;;;;;;;;4847884;29;20488;-59
2023/01/04 06:56:08;;;;;;;6.72;4.82;;;;;;;;;;4851718;29;20030;-59
2023/01/04 06:58:34;;;;;;;7.95;4.78;;;;;;;;;;4848736;29;20041;-59
2023/01/04 07:00:59;;;;;;;8.75;4.40;;;;;;;;;;4843758;29;20034;-59
2023/01/04 07:03:24;;;;;;;8.43;5.53;;;;;;;;;;4845518;29;20424;-59
2023/01/04 07:05:50;;;;;;;8.10;4.70;;;;;;;;;;4849718;29;20134;-59
2023/01/04 07:08:16;;;;;;;7.68;4.30;;;;;;;;;;4847044;29;20334;-59
2023/01/04 07:10:41;;;;;;;10.20;5.40;;;;;;;;;;4848855;29;20041;-59
2023/01/04 07:13:07;;;;;;;10.48;7.00;;;;;;;;;;4847775;29;20038;-59
2023/01/04 07:15:32;;;;;;;8.82;6.13;;;;;;;;;;4854225;29;20041;-59
2023/01/04 07:17:58;;;;;;;8.02;5.68;;;;;;;;;;4881191;29;20433;-59
2023/01/04 07:20:23;;;;;;;6.75;5.03;;;;;;;;;;4848978;29;20119;-59
2023/01/04 07:22:48;;;;;;;7.72;4.88;;;;;;;;;;4847532;29;20041;-59
2023/01/04 07:25:15;;;;;;;8.88;4.65;;;;;;;;;;4843342;29;20033;-59
2023/01/04 07:27:40;;;;;;;7.63;4.68;;;;;;;;;;4859605;29;20515;-58
2023/01/04 07:30:06;;;;;;;8.98;4.90;;;;;;;;;;4848731;29;20510;-59
2023/01/04 07:32:31;;;;;;;7.80;4.53;;;;;;;;;;4849853;29;20093;-59
2023/01/04 07:34:57;;;;;;;9.15;4.88;;;;;;;;;;4849164;29;20030;-60
2023/01/04 07:37:22;;;;;;;7.85;3.97;;;;;;;;;;4850527;29;20026;-59
2023/01/04 07:39:48;;;;;;;5.40;3.45;;;;;;;;;;4851680;29;20408;-59
2023/01/04 07:42:13;;;;;;;7.00;4.15;;;;;;;;;;4847923;29;20037;-59
2023/01/04 07:44:38;;;;;;;5.47;3.70;;;;;;;;;;4878732;29;20808;-59
2023/01/04 07:47:04;;;;;;;5.70;3.50;;;;;;;;;;4849284;29;20916;-59
2023/01/04 07:49:29;;;;;;;5.32;3.53;;;;;;;;;;4849685;29;20081;-59
2023/01/04 07:51:54;;;;;;;6.10;3.53;;;;;;;;;;4851336;29;20045;-59
2023/01/04 07:54:20;;;;;;;5.47;3.22;;;;;;;;;;4853092;29;20042;-59
2023/01/04 07:56:46;;;;;;;5.30;3.55;;;;;;;;;;4850480;29;20033;-60
2023/01/04 07:59:12;;;;;;;6.32;3.83;;;;;;;;;;4850360;29;20090;-60
2023/01/04 08:01:37;;;;;;;8.30;4.53;;;;;;;;;;4852363;29;20049;-59
2023/01/04 08:04:06;;;;;;;12.82;7.13;;;;;;;;;;4852813;29;20145;-59
2023/01/04 08:06:32;;;;;;;13.27;6.78;;;;;;;;;;4856710;29;20350;-60
2023/01/04 08:08:58;;;;;;;11.55;6.28;;;;;;;;;;4854380;29;20044;-60
2023/01/04 08:11:23;;;;;;;12.60;6.85;;;;;;;;;;4854342;29;20034;-59
2023/01/04 08:13:49;;;;;;;15.25;7.30;;;;;;;;;;4859868;29;20128;-59
2023/01/04 08:16:19;;;;;;;12.82;6.30;;;;;;;;;;4853021;29;20261;-60
2023/01/04 08:18:44;;;;;;;11.85;6.65;;;;;;;;;;4853026;29;20033;-60
2023/01/04 08:21:10;;;;;;;11.45;4.13;;;;;;;;;;4879580;29;20045;-60
2023/01/04 08:23:35;;;;;;;9.05;4.20;;;;;;;;;;4849923;29;20834;-59
2023/01/04 08:26:04;;;;;;;5.88;3.03;;;;;;;;;;4852148;29;20416;-60
2023/01/04 08:28:30;;;;;;;4.20;2.78;;;;;;;;;;4856077;29;20040;-59
2023/01/04 08:30:55;;;;;;;5.43;2.90;;;;;;;;;;4852915;29;20034;-59
2023/01/04 08:33:21;;;;;;;4.47;2.97;;;;;;;;;;4860183;29;20049;-59
2023/01/04 08:35:46;;;;;;;4.78;2.78;;;;;;;;;;4852209;29;20033;-60
2023/01/04 08:38:11;;;;;;;4.40;2.80;;;;;;;;;;4850476;29;20037;-59
2023/01/04 08:40:37;;;;;;;5.38;2.60;;;;;;;;;;4882631;29;20116;-59
2023/01/04 08:43:02;;;;;;;4.57;3.00;;;;;;;;;;4878518;29;20097;-60
2023/01/04 08:45:28;;;;;;;3.85;2.50;;;;;;;;;;4853312;29;20033;-59
2023/01/04 08:47:53;;;;;;;6.18;2.92;;;;;;;;;;4856295;29;20066;-59
2023/01/04 08:50:19;;;;;;;3.75;2.30;;;;;;;;;;4853421;29;20030;-60
2023/01/04 08:52:44;;;;;;;4.95;3.20;;;;;;;;;;4854515;29;20045;-60
2023/01/04 08:55:10;;;;;;;5.22;3.10;;;;;;;;;;4853810;29;20065;-59
2023/01/04 08:57:35;;;;;;;12.68;9.77;;;;;;;;;;4855063;29;20048;-60
2023/01/04 09:00:00;;;;;;;5.75;3.30;;;;;;;;;;4852964;29;20241;-60
2023/01/04 09:02:26;;;;;;;6.03;3.13;;;;;;;;;;4852095;29;20041;-60
2023/01/04 09:04:54;;;;;;;5.28;3.00;;;;;;;;;;4851149;29;20041;-59
2023/01/04 09:07:19;;;;;;;8.48;3.47;;;;;;;;;;4851749;29;20387;-60
2023/01/04 09:09:44;;;;;;;6.60;2.90;;;;;;;;;;4857071;29;20381;-59
2023/01/04 09:12:10;;;;;;;8.13;3.50;;;;;;;;;;4880384;29;20430;-59
2023/01/04 09:14:36;;;;;;;7.75;5.35;;;;;;;;;;4852448;29;20053;-60
2023/01/04 09:17:01;;;;;;;7.72;5.43;;;;;;;;;;4852815;29;20451;-60
2023/01/04 09:19:26;;;;;;;4.47;3.28;;;;;;;;;;4857201;29;20743;-60
2023/01/04 09:21:52;;;;;;;5.30;3.30;;;;;;;;;;4853624;29;20089;-59
2023/01/04 09:24:17;;;;;;;4.68;3.25;;;;;;;;;;4853738;29;20041;-59
2023/01/04 09:26:46;;;;;;;4.10;2.72;;;;;;;;;;4851247;29;20085;-60
2023/01/04 09:29:11;;;;;;;4.90;2.60;;;;;;;;;;4854022;29;20040;-59
2023/01/04 09:31:36;;;;;;;4.80;2.63;;;;;;;;;;4852653;29;20030;-60
2023/01/04 09:34:04;;;;;;;5.72;2.80;;;;;;;;;;4853069;29;20033;-60
2023/01/04 09:36:29;;;;;;;4.68;2.78;;;;;;;;;;4867532;29;20476;-60
2023/01/04 09:38:54;;;;;;;5.03;3.20;;;;;;;;;;4857149;29;20033;-60
2023/01/04 09:41:49;;;;;;;11.73;5.32;;;;;;;;;;4855657;29;20033;-60
2023/01/04 09:44:27;;;;;;;7.40;4.53;;;;;;;;;;4860699;29;20300;-61
2023/01/04 09:46:56;;;;;;;8.27;3.67;;;;;;;;;;4850957;29;20041;-61
2023/01/04 09:49:21;;;;;;;3.97;2.42;;;;;;;;;;4856767;29;20208;-68
2023/01/04 09:51:54;;;;;;;4.07;2.30;;;;;;;;;;4852112;29;20093;-62
2023/01/04 09:54:22;;;;;;;5.53;2.00;;;;;;;;;;4849337;29;20081;-60
2023/01/04 09:56:52;;;;;;;4.10;1.85;;;;;;;;;;4845312;29;21671;-62
2023/01/04 09:59:19;;;;;;;2.92;1.70;;;;;;;;;;4857945;29;20076;-62
2023/01/04 10:01:54;;;;;;;3.53;1.70;;;;;;;;;;4858800;29;20059;-60
2023/01/04 10:04:38;;;;;;;3.35;1.60;;;;;;;;;;4852598;29;20068;-64
2023/01/04 10:07:03;;;;;;;4.65;1.88;;;;;;;;;;4847762;29;20045;-60
2023/01/04 10:09:28;;;;;;;2.85;1.60;;;;;;;;;;4844489;29;20056;-59
2023/01/04 10:12:05;;;;;;;3.83;1.77;;;;;;;;;;4872667;29;20092;-60
2023/01/04 10:14:49;;;;;;;2.90;1.73;;;;;;;;;;4849243;29;20480;-59
2023/01/04 10:17:14;;;;;;;1.90;1.48;;;;;;;;;;4874765;29;20045;-60
2023/01/04 10:19:48;;;;;;;5.18;1.60;;;;;;;;;;4842440;29;20030;-60
2023/01/04 10:22:14;;;;;;;3.30;1.55;;;;;;;;;;4848487;29;20567;-60
2023/01/04 10:24:58;;;;;;;3.38;1.80;;;;;;;;;;4844049;29;20121;-60
2023/01/04 10:27:48;;;;;;;3.35;1.85;;;;;;;;;;4848727;29;20100;-60
2023/01/04 10:30:35;;;;;;;4.30;1.70;;;;;;;;;;4849440;29;20134;-60
2023/01/04 10:33:11;;;;;;;3.72;1.77;;;;;;;;;;4845451;29;20055;-60
2023/01/04 10:35:37;;;;;;;2.90;1.85;;;;;;;;;;4848051;29;20041;-61
2023/01/04 10:38:09;;;;;;;4.22;2.13;;;;;;;;;;4843150;29;20029;-60
2023/01/04 10:40:38;;;;;;;3.75;2.20;;;;;;;;;;4846795;29;20094;-60
2023/01/04 10:43:06;;;;;;;3.55;1.80;;;;;;;;;;4846046;29;20033;-60
2023/01/04 10:45:42;;;;;;;4.57;1.95;;;;;;;;;;4848852;29;20037;-60
2023/01/04 10:48:13;;;;;;;4.25;1.90;;;;;;;;;;4843751;29;20421;-60
2023/01/04 10:50:45;;;;;;;5.70;3.10;;;;;;;;;;4841976;29;20373;-60
2023/01/04 10:53:16;;;;;;;3.53;2.20;;;;;;;;;;4848206;29;20091;-60
2023/01/04 10:55:50;;;;;;;4.78;2.08;;;;;;;;;;4843960;29;20521;-59
2023/01/04 10:58:18;;;;;;;3.13;1.70;;;;;;;;;;4842846;29;20129;-60
2023/01/04 11:01:10;;;;;;;4.32;1.88;;;;;;;;;;4856351;29;20065;-60
2023/01/04 11:03:38;;;;;;;5.88;2.30;;;;;;;;;;4851705;29;20132;-60
2023/01/04 11:06:04;;;;;;;4.60;1.85;;;;;;;;;;4849335;29;20051;-61
2023/01/04 11:08:32;;;;;;;3.22;2.08;;;;;;;;;;4852001;29;20650;-60
2023/01/04 11:11:04;;;;;;;5.97;1.98;;;;;;;;;;4851116;29;20074;-60
2023/01/04 11:13:30;;;;;;;3.65;1.70;;;;;;;;;;4850925;29;20045;-59
2023/01/04 11:15:55;;;;;;;4.15;1.80;;;;;;;;;;4875182;29;20133;-60
2023/01/04 11:18:20;;;;;;;3.13;1.67;;;;;;;;;;4847820;29;20459;-59
2023/01/04 11:20:46;;;;;;;6.57;2.20;;;;;;;;;;4849579;29;20043;-59
2023/01/04 11:23:13;;;;;;;3.85;1.80;;;;;;;;;;4850466;29;20511;-59
2023/01/04 11:25:40;;;;;;;5.03;1.85;;;;;;;;;;4852915;29;20378;-59
2023/01/04 11:28:06;;;;;;;5.15;1.77;;;;;;;;;;4846768;29;20105;-59
2023/01/04 11:30:45;;;;;;;2.92;1.75;;;;;;;;;;4847075;29;20136;-59
2023/01/04 11:33:14;;;;;;;5.78;2.17;;;;;;;;;;4848413;29;20045;-59
2023/01/04 11:35:42;;;;;;;2.47;1.63;;;;;;;;;;4845633;29;20034;-59
2023/01/04 11:38:34;;;;;;;3.72;1.90;;;;;;;;;;4847107;29;20393;-60
2023/01/04 11:41:00;;;;;;;4.65;2.00;;;;;;;;;;4850272;29;20438;-59
2023/01/04 11:43:27;;;;;;;5.07;2.15;;;;;;;;;;4846600;29;20434;-59
2023/01/04 11:45:54;;;;;;;4.50;1.90;;;;;;;;;;4851309;29;20033;-59
2023/01/04 11:48:29;;;;;;;3.35;1.83;;;;;;;;;;4856646;29;20069;-59
2023/01/04 11:50:55;;;;;;;4.65;1.80;;;;;;;;;;4855974;29;20040;-59
2023/01/04 11:53:20;;;;;;;3.38;1.77;;;;;;;;;;4884472;29;20042;-59
2023/01/04 11:55:46;;;;;;;3.67;1.80;;;;;;;;;;4855215;29;20038;-59
2023/01/04 11:58:12;;;;;;;2.45;1.63;;;;;;;;;;4859390;29;20036;-59
2023/01/04 12:00:48;;;;;;;4.53;2.20;;;;;;;;;;4856018;29;20459;-59
2023/01/04 12:03:14;;;;;;;5.95;1.90;;;;;;;;;;4857052;29;20033;-59
2023/01/04 12:05:40;;;;;;;3.72;1.95;;;;;;;;;;4858160;29;20041;-59
2023/01/04 12:08:05;;;;;;;3.15;1.48;;;;;;;;;;4857664;29;20056;-60
2023/01/04 12:10:30;;;;;;;5.45;1.90;;;;;;;;;;4853554;29;20424;-60
2023/01/04 12:12:58;;;;;;;4.57;1.80;;;;;;;;;;4857961;29;20053;-60
2023/01/04 12:15:31;;;;;;;5.10;1.70;;;;;;;;;;4855240;29;20041;-59
2023/01/04 12:18:03;;;;;;;5.20;2.28;;;;;;;;;;4854805;29;20520;-59
2023/01/04 12:20:28;;;;;;;3.22;1.70;;;;;;;;;;4852570;29;20029;-60
2023/01/04 12:22:54;;;;;;;3.00;1.58;;;;;;;;;;4884015;29;20045;-59
2023/01/04 12:25:22;;;;;;;5.00;1.60;;;;;;;;;;4855593;29;20385;-59
2023/01/04 12:27:51;;;;;;;6.32;2.22;;;;;;;;;;4881416;29;20034;-58
2023/01/04 12:30:37;;;;;;;3.65;1.90;;;;;;;;;;4876015;29;20037;-59
2023/01/04 12:33:21;;;;;;;4.17;2.13;;;;;;;;;;4852189;29;20085;-58
2023/01/04 12:36:18;;;;;;;5.03;1.60;;;;;;;;;;4881024;29;20692;-59
2023/01/04 12:38:53;;;;;;;2.25;1.60;;;;;;;;;;4871956;29;20053;-59
2023/01/04 12:41:19;;;;;;;4.85;1.90;;;;;;;;;;4853824;29;20453;-59
2023/01/04 12:43:46;;;;;;;4.18;2.03;;;;;;;;;;4854472;29;20124;-59
2023/01/04 12:49:26;;;;;;;3.10;1.77;;;;;;;;;;4855825;29;20048;-58
2023/01/04 12:52:06;;;;;;;3.05;1.60;;;;;;;;;;4852971;29;20125;-58
2023/01/04 12:54:44;;;;;;;3.33;2.00;;;;;;;;;;4854921;29;20422;-59
2023/01/04 12:57:10;;;;;;;3.83;1.90;;;;;;;;;;4856079;29;20044;-59
2023/01/04 12:59:37;;;;;;;8.82;2.35;;;;;;;;;;4856756;29;20022;-59
2023/01/04 13:02:22;;;;;;;3.88;2.00;;;;;;;;;;4859492;29;20535;-59
2023/01/04 13:04:48;;;;;;;2.40;1.60;;;;;;;;;;4882864;29;20045;-59
2023/01/04 13:07:16;;;;;;;5.13;1.80;;;;;;;;;;4856238;29;20436;-59
2023/01/04 13:09:44;;;;;;;4.30;1.80;;;;;;;;;;4853944;29;20033;-59
2023/01/04 13:12:19;;;;;;;5.07;2.15;;;;;;;;;;4854750;29;20041;-59
2023/01/04 13:14:49;;;;;;;3.50;1.60;;;;;;;;;;4851841;29;20159;-59
2023/01/04 13:17:20;;;;;;;5.05;1.75;;;;;;;;;;4859163;29;20125;-59
2023/01/04 13:19:45;;;;;;;9.98;2.50;;;;;;;;;;4856651;29;20045;-59
2023/01/04 13:22:26;;;;;;;4.13;1.70;;;;;;;;;;4870139;29;20083;-59
2023/01/04 13:24:51;;;;;;;4.45;1.88;;;;;;;;;;4878449;29;20042;-59
2023/01/04 13:27:18;;;;;;;4.63;1.90;;;;;;;;;;4872977;29;20060;-59
2023/01/04 13:29:44;;;;;;;2.90;1.50;;;;;;;;;;4845225;29;20065;-59
2023/01/04 13:32:11;;;;;;;6.50;1.70;;;;;;;;;;4844354;29;20082;-59
2023/01/04 13:34:51;;;;;;;3.40;1.63;;;;;;;;;;4874222;29;20556;-59
2023/01/04 13:37:26;;;;;;;3.67;1.60;;;;;;;;;;4850047;29;20037;-58
2023/01/04 13:40:11;;;;;;;4.15;1.52;;;;;;;;;;4844592;29;20213;-60
2023/01/04 13:42:39;;;;;;;2.63;1.60;;;;;;;;;;4878149;29;20069;-59
2023/01/04 13:45:13;;;;;;;5.53;2.00;;;;;;;;;;4844546;29;20502;-60
2023/01/04 13:47:40;;;;;;;3.50;1.80;;;;;;;;;;4843201;29;20466;-61
2023/01/04 13:50:06;;;;;;;2.20;1.60;;;;;;;;;;4845587;29;20488;-60
2023/01/04 13:52:31;;;;;;;7.40;3.55;;;;;;;;;;4843345;29;20526;-60
2023/01/04 13:55:11;;;;;;;2.45;1.60;;;;;;;;;;4876646;29;20030;-60
2023/01/04 13:57:36;;;;;;;5.57;1.77;;;;;;;;;;4848990;29;20532;-59
2023/01/04 14:00:03;;;;;;;4.82;1.58;;;;;;;;;;4849914;29;20045;-60
2023/01/04 14:02:36;;;;;;;4.03;1.80;;;;;;;;;;4847575;29;20056;-59
2023/01/04 14:05:01;;;;;;;2.13;1.40;;;;;;;;;;4876677;29;20038;-60
2023/01/04 14:07:27;;;;;;;3.70;1.40;;;;;;;;;;4847598;29;20033;-58
2023/01/04 14:09:54;;;;;;;2.15;1.70;;;;;;;;;;4849160;29;20124;-58
2023/01/04 14:12:21;;;;;;;2.55;1.77;;;;;;;;;;4848700;29;20077;-58
2023/01/04 14:14:46;;;;;;;4.37;2.17;;;;;;;;;;4849338;29;20033;-58
2023/01/04 14:17:31;;;;;;;3.95;1.73;;;;;;;;;;4849016;29;20566;-58
2023/01/04 14:19:57;;;;;;;3.35;1.80;;;;;;;;;;4847166;29;20481;-58
2023/01/04 14:22:22;;;;;;;1.77;1.35;;;;;;;;;;4846506;29;20084;-59
2023/01/04 14:24:52;;;;;;;1.83;1.40;;;;;;;;;;4847874;29;20111;-58
2023/01/04 14:27:32;;;;;;;3.53;2.05;;;;;;;;;;4843901;29;20429;-60
2023/01/04 14:29:57;;;;;;;2.80;1.60;;;;;;;;;;4847100;29;20077;-60
2023/01/04 14:32:23;;;;;;;3.83;1.92;;;;;;;;;;4845749;29;20145;-58
2023/01/04 14:34:48;;;;;;;4.80;1.80;;;;;;;;;;4849815;29;20467;-58
2023/01/04 14:37:14;;;;;;;3.42;1.92;;;;;;;;;;4850305;29;20051;-60
2023/01/04 14:39:40;;;;;;;12.07;3.58;;;;;;;;;;4852211;29;20077;-59
2023/01/04 14:42:22;;;;;;;26.42;10.50;;;;;;;;;;4853055;29;20093;-58
2023/01/04 14:44:47;;;;;;;20.75;6.97;;;;;;;;;;4853402;29;20548;-58
2023/01/04 14:47:12;;;;;;;16.30;6.30;;;;;;;;;;4850410;29;20029;-58
2023/01/04 14:49:38;;;;;;;46.67;16.08;;;;;;;;;;4850872;29;20416;-58
2023/01/04 14:52:09;;;;;;;9.40;4.35;;;;;;;;;;4848049;29;20615;-58
2023/01/04 14:54:37;;;;;;;5.75;2.30;;;;;;;;;;4851671;29;20029;-59
2023/01/04 14:57:03;;;;;;;4.25;2.28;;;;;;;;;;4851393;29;20121;-58
2023/01/04 14:59:28;;;;;;;4.50;2.67;;;;;;;;;;4851975;29;20551;-58
2023/01/04 15:01:54;;;;;;;5.28;3.10;;;;;;;;;;4846651;29;20057;-59
2023/01/04 15:04:20;;;;;;;4.15;1.92;;;;;;;;;;4860664;29;20038;-58
2023/01/04 15:06:50;;;;;;;3.22;1.92;;;;;;;;;;4849431;29;20033;-58
2023/01/04 15:09:18;;;;;;;5.07;2.50;;;;;;;;;;4849378;29;20037;-59
2023/01/04 15:11:43;;;;;;;3.28;2.05;;;;;;;;;;4851346;29;20415;-58
2023/01/04 15:14:08;;;;;;;4.28;2.45;;;;;;;;;;4851664;29;20049;-58
2023/01/04 15:16:34;;;;;;;4.75;2.30;;;;;;;;;;4847627;29;20038;-58
2023/01/04 15:18:59;;;;;;;2.15;1.52;;;;;;;;;;4847024;29;21497;-59
2023/01/04 15:21:24;;;;;;;3.33;1.95;;;;;;;;;;4854608;29;20033;-58
2023/01/04 15:23:50;;;;;;;2.50;1.60;;;;;;;;;;4880235;29;20078;-58
2023/01/04 15:26:15;;;;;;;4.03;2.05;;;;;;;;;;4852455;29;20166;-59